createdAt,value
2022-09-03T00:02:54.148Z,67.1
2022-09-03T00:04:56.000Z,67.51
2022-09-03T00:06:57.814Z,67.97
2022-09-03T00:08:59.761Z,68.23
2022-09-03T00:11:01.491Z,67.94
2022-09-03T00:13:03.188Z,67.7
2022-09-03T00:15:04.867Z,68.98
2022-09-03T00:17:06.655Z,68.98
2022-09-03T00:19:08.229Z,69.02
2022-09-03T00:21:09.826Z,69.13
2022-09-03T00:23:11.270Z,68.96
2022-09-03T00:25:12.633Z,69.29
2022-09-03T00:27:13.974Z,68.57
2022-09-03T00:29:15.808Z,68.68
2022-09-03T00:31:17.505Z,69.68
2022-09-03T00:35:21.044Z,69.36
2022-09-03T00:37:22.531Z,69.79
2022-09-03T00:39:24.051Z,69.71
2022-09-03T00:41:25.683Z,70.11
2022-09-03T00:45:28.035Z,71
2022-09-03T00:47:29.960Z,71.2
2022-09-03T00:49:31.353Z,70.92
2022-09-03T00:51:32.824Z,71.95
2022-09-03T00:55:36.329Z,71.9
2022-09-03T00:57:38.155Z,71.65
2022-09-03T00:59:39.855Z,71.57
2022-09-03T01:01:40.941Z,71.92
2022-09-03T01:03:42.679Z,71.15
2022-09-03T01:05:43.657Z,71.2
2022-09-03T01:07:45.501Z,71.81
2022-09-03T01:09:47.090Z,72.42
2022-09-03T01:11:48.476Z,72.79
2022-09-03T01:13:50.198Z,72.58
2022-09-03T01:17:53.295Z,72.43
2022-09-03T01:19:55.115Z,72.41
2022-09-03T01:21:56.916Z,73.66
2022-09-03T01:23:58.084Z,73.95
2022-09-03T01:28:00.999Z,73.49
2022-09-03T01:30:02.456Z,73.58
2022-09-03T01:32:03.762Z,73.75
2022-09-03T01:34:04.790Z,73.83
2022-09-03T01:36:06.736Z,74.22
2022-09-03T01:38:08.494Z,74.66
2022-09-03T01:40:09.736Z,75
2022-09-03T01:42:10.888Z,74.28
2022-09-03T01:44:12.411Z,74.08
2022-09-03T01:46:13.766Z,74.42
2022-09-03T01:48:14.820Z,74.41
2022-09-03T01:50:16.241Z,74.06
2022-09-03T01:52:17.874Z,73.96
2022-09-03T01:54:21.121Z,74.03
2022-09-03T01:56:21.138Z,73.36
2022-09-03T01:58:22.709Z,73.4
2022-09-03T02:00:23.943Z,73.69
2022-09-03T02:02:25.964Z,73.55
2022-09-03T02:04:27.063Z,73.93
2022-09-03T02:06:28.277Z,74
2022-09-03T02:08:30.061Z,73.29
2022-09-03T02:10:31.870Z,72.02
2022-09-03T02:12:33.319Z,72.2
2022-09-03T02:16:35.933Z,73.18
2022-09-03T02:18:37.119Z,73.53
2022-09-03T02:20:38.979Z,74.32
2022-09-03T02:22:40.226Z,74.56
2022-09-03T02:26:43.265Z,75.04
2022-09-03T02:28:44.534Z,75.01
2022-09-03T02:30:46.033Z,75.84
2022-09-03T02:32:47.233Z,75.62
2022-09-03T02:34:48.406Z,75.09
2022-09-03T02:36:50.018Z,74.69
2022-09-03T02:38:51.331Z,74.27
2022-09-03T02:40:53.123Z,74.54
2022-09-03T02:42:54.160Z,74.83
2022-09-03T02:44:55.403Z,75.63
2022-09-03T02:46:57.056Z,75.15
2022-09-03T02:48:58.026Z,75.28
2022-09-03T02:50:59.642Z,76.04
2022-09-03T02:53:01.040Z,76.75
2022-09-03T02:55:02.869Z,76.99
2022-09-03T02:57:04.609Z,77.63
2022-09-03T02:59:06.091Z,77.41
2022-09-03T03:01:08.044Z,77.41
2022-09-03T03:03:09.483Z,77.71
2022-09-03T03:05:11.204Z,77.88
2022-09-03T03:09:14.440Z,77.6
2022-09-03T03:11:15.995Z,78.23
2022-09-03T03:13:17.446Z,78.34
2022-09-03T03:15:18.571Z,78.35
2022-09-03T03:17:20.291Z,77.88
2022-09-03T03:19:21.502Z,77.27
2022-09-03T03:21:22.970Z,76.71
2022-09-03T03:23:24.222Z,76.07
2022-09-03T03:25:25.971Z,75.35
2022-09-03T03:27:27.404Z,75.94
2022-09-03T03:29:29.160Z,76.29
2022-09-03T03:31:30.323Z,75.89
2022-09-03T03:33:32.056Z,76.44
2022-09-03T03:35:33.196Z,76.15
2022-09-03T03:37:34.728Z,78.47
2022-09-03T03:39:36.319Z,77.66
2022-09-03T03:41:37.802Z,77.37
2022-09-03T03:43:39.176Z,77.36
2022-09-03T03:45:40.934Z,77.42
2022-09-03T03:47:42.055Z,77.32
2022-09-03T03:51:44.623Z,77.02
2022-09-03T03:53:45.729Z,76.85
2022-09-03T03:55:46.729Z,76.94
2022-09-03T03:57:48.085Z,77.12
2022-09-03T03:59:49.458Z,76.86
2022-09-03T04:01:51.069Z,77.3
2022-09-03T04:03:52.237Z,78.27
2022-09-03T04:07:55.247Z,77.41
2022-09-03T04:09:56.320Z,76.35
2022-09-03T04:11:57.417Z,75.94
2022-09-03T04:13:58.545Z,76.06
2022-09-03T04:15:59.597Z,78.53
2022-09-03T04:18:01.283Z,78.73
2022-09-03T04:20:02.699Z,78.55
2022-09-03T04:22:04.065Z,78.16
2022-09-03T04:24:05.056Z,77.97
2022-09-03T04:26:06.629Z,77.23
2022-09-03T04:28:07.648Z,77.6
2022-09-03T04:30:09.235Z,77.91
2022-09-03T04:32:10.511Z,77.06
2022-09-03T04:34:11.586Z,76.71
2022-09-03T04:36:12.614Z,76.64
2022-09-03T04:40:15.494Z,77.1
2022-09-03T04:42:17.110Z,76.98
2022-09-03T04:44:18.129Z,77.04
2022-09-03T04:46:19.857Z,77.06
2022-09-03T04:50:23.540Z,76.89
2022-09-03T04:52:24.535Z,77.48
2022-09-03T04:54:28.186Z,77.52
2022-09-03T04:56:26.998Z,78.01
2022-09-03T04:58:27.957Z,77.47
2022-09-03T05:00:28.973Z,76.03
2022-09-03T05:02:30.716Z,75.34
2022-09-03T05:04:31.822Z,75.29
2022-09-03T05:06:32.862Z,74.77
2022-09-03T05:08:43.517Z,74.97
2022-09-03T05:10:35.742Z,74.55
2022-09-03T05:12:37.393Z,74.74
2022-09-03T05:14:39.016Z,74.01
2022-09-03T05:16:40.928Z,74.27
2022-09-03T05:18:42.469Z,76.96
2022-09-03T05:20:43.800Z,75.76
2022-09-03T05:22:45.022Z,75.25
2022-09-03T05:24:46.599Z,74.41
2022-09-03T05:26:47.618Z,74.67
2022-09-03T05:28:48.718Z,74.97
2022-09-03T05:32:51.213Z,76.22
2022-09-03T05:34:53.051Z,73.82
2022-09-03T05:36:54.665Z,73.85
2022-09-03T05:38:55.828Z,73.24
2022-09-03T05:40:57.447Z,73.32
2022-09-03T05:43:08.566Z,73.54
2022-09-03T05:45:00.057Z,72.65
2022-09-03T05:47:01.802Z,72.3
2022-09-03T05:49:02.848Z,71.85
2022-09-03T05:51:04.090Z,72.59
2022-09-03T05:53:05.359Z,71.86
2022-09-03T05:55:08.062Z,71.77
2022-09-03T05:57:07.832Z,71.6
2022-09-03T05:59:08.768Z,75.48
2022-09-03T06:01:10.206Z,74.52
2022-09-03T06:03:12.112Z,71.71
2022-09-03T06:05:13.089Z,72.28
2022-09-03T06:07:14.554Z,73.01
2022-09-03T06:09:16.112Z,72.1
2022-09-03T06:13:18.521Z,72.61
2022-09-03T06:15:19.642Z,70.65
2022-09-03T06:17:21.076Z,71.4
2022-09-03T06:21:23.932Z,68.36
2022-09-03T06:22:33.944Z,68.02
2022-09-03T06:26:36.827Z,67.94
2022-09-03T06:28:38.258Z,68.47
2022-09-03T06:30:39.632Z,69.05
2022-09-03T06:32:41.109Z,68.57
2022-09-03T06:36:43.170Z,67.88
2022-09-03T06:38:44.637Z,67.39
2022-09-03T06:40:46.239Z,67.64
2022-09-03T06:42:47.955Z,67.84
2022-09-03T06:44:49.794Z,67.65
2022-09-03T06:46:51.013Z,67.71
2022-09-03T06:48:52.106Z,68.17
2022-09-03T06:50:53.520Z,65.18
2022-09-03T06:52:54.433Z,64.49
2022-09-03T06:54:55.553Z,62.84
2022-09-03T06:56:56.862Z,63.37
2022-09-03T06:58:58.608Z,64.38
2022-09-03T07:00:59.915Z,61.89
2022-09-03T07:03:01.088Z,62.16
2022-09-03T07:05:02.110Z,61.58
2022-09-03T07:09:04.578Z,61.71
2022-09-03T07:11:06.403Z,61.86
2022-09-03T07:13:07.536Z,62.44
2022-09-03T07:15:08.918Z,62.29
2022-09-03T07:17:10.440Z,63.05
2022-09-03T07:19:11.898Z,62.72
2022-09-03T07:21:13.471Z,61.46
2022-09-03T07:23:15.086Z,60.88
2022-09-03T07:25:16.328Z,60.88
2022-09-03T07:27:18.098Z,60.56
2022-09-03T07:29:19.417Z,59.76
2022-09-03T07:31:20.492Z,60.54
2022-09-03T07:35:23.720Z,58.75
2022-09-03T07:37:24.793Z,59.22
2022-09-03T07:39:26.548Z,60
2022-09-03T07:41:28.593Z,59.45
2022-09-03T07:43:28.793Z,59.47
2022-09-03T07:45:30.106Z,59.83
2022-09-03T07:47:31.452Z,60.15
2022-09-03T07:49:33.259Z,58.98
2022-09-03T07:51:34.972Z,59.48
2022-09-03T07:53:37.547Z,57.82
2022-09-03T07:55:38.707Z,57.56
2022-09-03T07:57:40.334Z,56.53
2022-09-03T07:59:41.404Z,56.36
2022-09-03T08:01:42.829Z,55.19
2022-09-03T08:03:43.877Z,55.09
2022-09-03T08:07:46.987Z,52.61
2022-09-03T08:09:48.646Z,53.18
2022-09-03T08:11:50.306Z,54.12
2022-09-03T08:13:51.137Z,53.45
2022-09-03T08:17:53.967Z,54.68
2022-09-03T08:19:55.515Z,52.87
2022-09-03T08:21:56.414Z,54.46
2022-09-03T08:23:57.888Z,54.9
2022-09-03T08:25:58.806Z,54.25
2022-09-03T08:27:59.894Z,54.7
2022-09-03T08:30:01.094Z,55.53
2022-09-03T08:32:05.188Z,55.81
2022-09-03T08:34:03.801Z,54.71
2022-09-03T08:36:05.140Z,54.66
2022-09-03T08:38:06.684Z,52
2022-09-03T08:40:07.590Z,53.52
2022-09-03T08:42:09.155Z,53.75
2022-09-03T08:44:10.563Z,53.23
2022-09-03T08:46:11.817Z,53.19
2022-09-03T08:48:12.658Z,53.33
2022-09-03T08:50:13.697Z,54.04
2022-09-03T08:52:14.643Z,54.69
2022-09-03T08:54:16.200Z,54.2
2022-09-03T08:56:17.369Z,52.06
2022-09-03T09:00:20.038Z,51.67
2022-09-03T09:02:20.944Z,51.88
2022-09-03T09:04:22.943Z,50.52
2022-09-03T09:06:24.438Z,50.85
2022-09-03T09:08:25.366Z,52.66
2022-09-03T09:10:26.243Z,51.49
2022-09-03T09:12:27.843Z,49.91
2022-09-03T09:14:28.771Z,50.64
2022-09-03T09:18:30.911Z,48.19
2022-09-03T09:20:32.196Z,49.51
2022-09-03T09:22:34.715Z,47.94
2022-09-03T09:24:36.404Z,48.83
2022-09-03T09:26:37.387Z,48.21
2022-09-03T09:28:38.551Z,46.71
2022-09-03T09:30:39.423Z,48.95
2022-09-03T09:32:40.444Z,44.98
2022-09-03T09:34:41.769Z,44.15
2022-09-03T09:36:43.371Z,45.11
2022-09-03T09:38:44.323Z,46.09
2022-09-03T09:40:45.517Z,46.88
2022-09-03T09:42:46.299Z,46.52
2022-09-03T09:46:52.736Z,47.38
2022-09-03T09:48:50.682Z,48.8
2022-09-03T09:51:00.814Z,47.34
2022-09-03T09:52:56.158Z,48.75
2022-09-03T09:56:55.366Z,47.55
2022-09-03T09:58:56.464Z,47.47
2022-09-03T10:00:57.867Z,50.79
2022-09-03T10:02:58.710Z,50.66
2022-09-03T10:04:59.607Z,49.98
2022-09-03T10:07:01.252Z,49.99
2022-09-03T10:09:02.780Z,51.01
2022-09-03T10:11:03.688Z,48.14
2022-09-03T10:13:04.792Z,48.56
2022-09-03T10:15:06.285Z,47.15
2022-09-03T10:19:08.399Z,48.71
2022-09-03T10:21:09.336Z,46.91
2022-09-03T10:23:11.157Z,46.1
2022-09-03T10:29:16.333Z,47.47
2022-09-03T10:31:17.950Z,46.14
2022-09-03T10:33:18.646Z,45.79
2022-09-03T10:35:19.443Z,45.69
2022-09-03T10:37:21.002Z,46.63
2022-09-03T10:39:22.641Z,45.99
2022-09-03T10:41:23.910Z,44.43
2022-09-03T10:43:24.674Z,45.74
2022-09-03T10:45:25.701Z,47.82
2022-09-03T10:47:26.718Z,47.65
2022-09-03T10:49:27.933Z,48.41
2022-09-03T10:51:28.860Z,47.9
2022-09-03T10:53:30.306Z,48.25
2022-09-03T10:55:31.534Z,48.59
2022-09-03T10:57:32.298Z,45.04
2022-09-03T10:59:33.315Z,44.39
2022-09-03T11:01:34.418Z,45.33
2022-09-03T11:03:35.991Z,45.46
2022-09-03T11:05:37.051Z,45.63
2022-09-03T11:07:38.006Z,45.47
2022-09-03T11:09:39.418Z,46.32
2022-09-03T11:11:40.797Z,46.08
2022-09-03T11:13:41.946Z,45.27
2022-09-03T11:15:43.456Z,45.37
2022-09-03T11:17:45.109Z,45.71
2022-09-03T11:19:46.841Z,45.51
2022-09-03T11:21:48.337Z,45.14
2022-09-03T11:23:49.283Z,44.4
2022-09-03T11:27:55.932Z,45.6
2022-09-03T11:29:53.010Z,47.1
2022-09-03T11:31:54.380Z,45.14
2022-09-03T11:33:56.090Z,47.76
2022-09-03T11:35:57.427Z,44.98
2022-09-03T11:37:58.910Z,43.47
2022-09-03T11:39:59.696Z,46.49
2022-09-03T11:42:01.290Z,46.05
2022-09-03T11:44:04.550Z,45.25
2022-09-03T11:46:03.036Z,44.35
2022-09-03T11:48:04.643Z,42.99
2022-09-03T11:50:06.095Z,42.25
2022-09-03T11:52:07.277Z,43.97
2022-09-03T11:54:08.847Z,44.08
2022-09-03T11:56:10.512Z,44.4
2022-09-03T11:58:11.480Z,45.86
2022-09-03T12:00:12.610Z,46.74
2022-09-03T12:02:13.899Z,45.75
2022-09-03T12:04:14.918Z,45.38
2022-09-03T12:06:16.484Z,46.63
2022-09-03T12:08:18.057Z,45.84
2022-09-03T12:10:19.580Z,45.31
2022-09-03T12:12:21.314Z,45.59
2022-09-03T12:14:23.007Z,46.39
2022-09-03T12:16:24.724Z,46.2
2022-09-03T12:18:26.046Z,45.92
2022-09-03T12:20:27.229Z,45.8
2022-09-03T12:22:28.976Z,47.09
2022-09-03T12:24:32.622Z,47.2
2022-09-03T12:26:32.109Z,47.43
2022-09-03T12:28:34.281Z,47.2
2022-09-03T12:30:34.494Z,45.65
2022-09-03T12:32:35.934Z,45.86
2022-09-03T12:34:37.527Z,45.02
2022-09-03T12:36:38.782Z,46.13
2022-09-03T12:39:00.979Z,46.09
2022-09-03T12:41:23.238Z,45.92
2022-09-03T12:42:41.938Z,45.84
2022-09-03T12:44:43.005Z,46.14
2022-09-03T12:46:44.241Z,45.76
2022-09-03T12:48:45.016Z,46.74
2022-09-03T12:50:49.328Z,45.76
2022-09-03T12:52:47.094Z,46.46
2022-09-03T12:54:50.403Z,46.21
2022-09-03T12:58:50.928Z,48.18
2022-09-03T13:00:52.295Z,48.43
2022-09-03T13:02:53.711Z,48.66
2022-09-03T13:04:54.539Z,49.04
2022-09-03T13:07:44.884Z,49.58
2022-09-03T13:09:41.276Z,50.51
2022-09-03T13:11:42.285Z,50.51
2022-09-03T13:13:43.800Z,50.89
2022-09-03T13:15:45.422Z,49.21
2022-09-03T13:17:46.979Z,49.11
2022-09-03T13:19:47.882Z,48.6
2022-09-03T13:21:49.263Z,48.49
2022-09-03T13:23:51.025Z,48.92
2022-09-03T13:25:52.572Z,48.78
2022-09-03T13:27:54.304Z,48.57
2022-09-03T13:29:55.789Z,48.46
2022-09-03T13:31:56.719Z,48.29
2022-09-03T13:33:57.631Z,48.78
2022-09-03T13:35:58.687Z,47.81
2022-09-03T13:37:59.959Z,48.42
2022-09-03T13:40:00.915Z,47.42
2022-09-03T13:42:01.788Z,48.14
2022-09-03T13:46:04.739Z,47.77
2022-09-03T13:48:05.799Z,47.96
2022-09-03T13:50:07.135Z,48.72
2022-09-03T13:52:08.883Z,48.59
2022-09-03T13:54:10.569Z,49.16
2022-09-03T13:56:11.517Z,47.85
2022-09-03T13:58:13.065Z,47.39
2022-09-03T14:00:14.732Z,47.26
2022-09-03T14:02:16.409Z,46.72
2022-09-03T14:04:18.100Z,46.5
2022-09-03T14:06:19.300Z,47.3
2022-09-03T14:08:20.397Z,45.83
2022-09-03T14:10:22.157Z,45.54
2022-09-03T14:12:23.306Z,46.01
2022-09-03T14:14:25.017Z,45.55
2022-09-03T14:16:26.040Z,46.08
2022-09-03T14:18:27.220Z,46.56
2022-09-03T14:20:28.766Z,47.07
2022-09-03T14:22:30.483Z,46.79
2022-09-03T14:24:32.194Z,46.76
2022-09-03T14:26:38.906Z,49.31
2022-09-03T14:28:34.729Z,48.77
2022-09-03T14:30:35.651Z,48.16
2022-09-03T14:34:38.466Z,47.24
2022-09-03T14:36:39.591Z,46.53
2022-09-03T14:38:40.842Z,45.87
2022-09-03T14:40:42.219Z,45.72
2022-09-03T14:44:44.182Z,46.42
2022-09-03T14:46:45.054Z,47.66
2022-09-03T14:48:46.054Z,48.76
2022-09-03T14:50:47.379Z,48.7
2022-09-03T14:52:48.463Z,49.04
2022-09-03T14:54:49.664Z,49.61
2022-09-03T14:56:50.762Z,49.44
2022-09-03T14:58:51.887Z,49.49
2022-09-03T15:00:53.576Z,50.06
2022-09-03T15:02:54.496Z,50.11
2022-09-03T15:04:55.383Z,49.95
2022-09-03T15:06:57.134Z,50.27
2022-09-03T15:08:58.646Z,50.82
2022-09-03T15:10:59.744Z,51.29
2022-09-03T15:13:01.477Z,51.92
2022-09-03T15:15:03.222Z,51.77
2022-09-03T15:17:04.150Z,52.2
2022-09-03T15:19:05.531Z,51.83
2022-09-03T15:21:07.056Z,51.77
2022-09-03T15:23:08.819Z,52.5
2022-09-03T15:27:11.631Z,52.43
2022-09-03T15:29:13.109Z,52.21
2022-09-03T15:31:14.897Z,52.53
2022-09-03T15:33:15.951Z,52.85
2022-09-03T15:35:17.814Z,53.86
2022-09-03T15:37:18.457Z,55.07
2022-09-03T15:39:19.608Z,56.98
2022-09-03T15:41:20.439Z,60.5
2022-09-03T15:43:21.894Z,62.57
2022-09-03T15:45:22.952Z,64.54
2022-09-03T15:47:24.036Z,62.84
2022-09-03T15:49:25.157Z,69.66
2022-09-03T15:51:26.591Z,71.41
2022-09-03T15:53:28.157Z,73.35
2022-09-03T15:55:29.477Z,74.98
2022-09-03T15:59:32.138Z,72.43
2022-09-03T16:01:33.573Z,74.02
2022-09-03T16:03:35.027Z,75.41
2022-09-03T16:05:36.375Z,75.06
2022-09-03T16:09:44.091Z,78.91
2022-09-03T16:11:41.204Z,77.88
2022-09-03T16:13:42.969Z,77.75
2022-09-03T16:15:43.910Z,78.03
2022-09-03T16:17:45.344Z,77.61
2022-09-03T16:19:46.805Z,74.51
2022-09-03T16:21:47.888Z,75.04
2022-09-03T16:23:48.760Z,72.97
2022-09-03T16:25:49.883Z,71.25
2022-09-03T16:27:51.453Z,73.73
2022-09-03T16:29:52.314Z,74.4
2022-09-03T16:31:53.398Z,71.88
2022-09-03T16:33:54.731Z,69.88
2022-09-03T16:35:56.335Z,69.86
2022-09-03T16:37:57.985Z,69.97
2022-09-03T16:39:59.221Z,69.81
2022-09-03T16:42:00.876Z,70.09
2022-09-03T16:44:02.509Z,70.14
2022-09-03T16:46:04.308Z,70.7
2022-09-03T16:48:05.250Z,72.76
2022-09-03T16:50:06.462Z,73.92
2022-09-03T16:52:07.788Z,76.19
2022-09-03T16:54:09.387Z,77.27
2022-09-03T16:56:10.688Z,76.02
2022-09-03T16:58:12.275Z,74.15
2022-09-03T17:00:14.081Z,73.65
2022-09-03T17:02:37.428Z,72.56
2022-09-03T17:04:16.986Z,71.98
2022-09-03T17:06:18.583Z,72.85
2022-09-03T17:10:21.532Z,71.98
2022-09-03T17:12:22.525Z,72.8
2022-09-03T17:14:24.045Z,72.73
2022-09-03T17:16:25.225Z,72.15
2022-09-03T17:18:26.276Z,71.88
2022-09-03T17:20:27.854Z,74.9
2022-09-03T17:24:32.898Z,79.4
2022-09-03T17:26:31.790Z,79.08
2022-09-03T17:28:33.321Z,79.09
2022-09-03T17:30:34.684Z,79.08
2022-09-03T17:32:35.891Z,79
2022-09-03T17:34:37.201Z,78.58
2022-09-03T17:36:38.570Z,78.42
2022-09-03T17:38:40.280Z,77.91
2022-09-03T17:40:42.064Z,78.89
2022-09-03T17:42:43.426Z,80.45
2022-09-03T17:44:44.426Z,81.68
2022-09-03T17:46:46.160Z,83.32
2022-09-03T17:50:48.371Z,85.24
2022-09-03T17:52:49.352Z,85.64
2022-09-03T17:54:50.891Z,85.83
2022-09-03T17:56:52.163Z,85.61
2022-09-03T17:58:53.095Z,86.2
2022-09-03T18:00:54.807Z,85.8
2022-09-03T18:02:55.960Z,85.95
2022-09-03T18:04:57.730Z,85.68
2022-09-03T18:06:59.066Z,86.12
2022-09-03T18:09:00.383Z,86.9
2022-09-03T18:11:01.687Z,86.82
2022-09-03T18:13:03.821Z,87.26
2022-09-03T18:15:03.895Z,86.51
2022-09-03T18:17:05.562Z,86.28
2022-09-03T18:19:06.837Z,86.96
2022-09-03T18:23:09.637Z,87.03
2022-09-03T18:25:10.759Z,87.05
2022-09-03T18:27:12.189Z,86.41
2022-09-03T18:29:13.878Z,86.54
2022-09-03T18:31:15.672Z,86.81
2022-09-03T18:33:17.201Z,86.81
2022-09-03T18:35:18.367Z,85.84
2022-09-03T18:37:19.485Z,85.42
2022-09-03T18:39:20.713Z,85.13
2022-09-03T18:43:23.094Z,85.35
2022-09-03T18:45:24.100Z,85.15
2022-09-03T18:48:01.274Z,84.6
2022-09-03T18:49:26.770Z,85.31
2022-09-03T18:51:28.032Z,85.23
2022-09-03T18:53:37.425Z,85
2022-09-03T18:55:30.611Z,85.53
2022-09-03T18:57:31.946Z,87.47
2022-09-03T18:59:33.372Z,88.45
2022-09-03T19:03:36.339Z,89.71
2022-09-03T19:05:37.600Z,90.33
2022-09-03T19:07:38.655Z,90.22
2022-09-03T19:09:40.154Z,90.48
2022-09-03T19:11:41.919Z,89.55
2022-09-03T19:13:42.984Z,89.1
2022-09-03T19:15:44.696Z,88.67
2022-09-03T19:17:45.538Z,88.85
2022-09-03T19:19:47.091Z,88.53
2022-09-03T19:21:48.532Z,88.68
2022-09-03T19:23:50.007Z,89.39
2022-09-03T19:25:51.892Z,90.19
2022-09-03T19:27:59.490Z,90.4
2022-09-03T19:29:55.668Z,90.67
2022-09-03T19:31:56.809Z,90.56
2022-09-03T19:33:57.847Z,90.61
2022-09-03T19:35:58.792Z,90.89
2022-09-03T19:40:01.791Z,91.21
2022-09-03T19:42:03.452Z,90.84
2022-09-03T19:44:04.454Z,90.93
2022-09-03T19:46:05.993Z,90.98
2022-09-03T19:48:07.191Z,90.75
2022-09-03T19:50:08.172Z,90.44
2022-09-03T19:52:09.635Z,90.38
2022-09-03T19:52:53.368Z,90.61
2022-09-03T19:54:54.284Z,90.76
2022-09-03T19:58:57.067Z,91.07
2022-09-03T20:00:58.634Z,91.21
2022-09-03T20:03:00.393Z,91.17
2022-09-03T20:05:02.041Z,91.18
2022-09-03T20:09:04.812Z,91.23
2022-09-03T20:11:05.775Z,91.22
2022-09-03T20:13:06.904Z,91.33
2022-09-03T20:15:07.992Z,91.8
2022-09-03T20:19:10.161Z,92.36
2022-09-03T20:21:11.373Z,92.17
2022-09-03T20:23:12.691Z,92.47
2022-09-03T20:25:14.514Z,91.91
2022-09-03T20:27:16.375Z,90.82
2022-09-03T20:29:17.921Z,90.12
2022-09-03T20:31:19.855Z,90.28
2022-09-03T20:33:22.848Z,90.71
2022-09-03T20:35:22.527Z,90.53
2022-09-03T20:37:24.043Z,90.38
2022-09-03T20:39:25.337Z,90.78
2022-09-03T20:41:26.572Z,90.92
2022-09-03T20:43:27.815Z,91.02
2022-09-03T20:45:29.392Z,91.59
2022-09-03T20:47:30.960Z,91.41
2022-09-03T20:49:32.291Z,92.08
2022-09-03T20:51:33.297Z,91.87
2022-09-03T20:53:34.842Z,91.73
2022-09-03T20:57:37.449Z,92.16
2022-09-03T20:59:38.753Z,92.84
2022-09-03T21:01:40.614Z,92.95
2022-09-03T21:03:41.648Z,93.24
2022-09-03T21:05:42.575Z,93.28
2022-09-03T21:07:44.114Z,93.49
2022-09-03T21:09:47.701Z,93.91
2022-09-03T21:11:47.290Z,93.88
2022-09-03T21:13:49.148Z,93.78
2022-09-03T21:15:53.227Z,93.55
2022-09-03T21:19:54.149Z,93.19
2022-09-03T21:21:55.198Z,93.07
2022-09-03T21:23:56.565Z,92.7
2022-09-03T21:25:57.892Z,92.92
2022-09-03T21:27:58.900Z,92.98
2022-09-03T21:30:01.109Z,92.98
2022-09-03T21:32:01.427Z,93.03
2022-09-03T21:34:02.380Z,93.17
2022-09-03T21:36:03.312Z,93.26
2022-09-03T21:38:04.482Z,93.61
2022-09-03T21:40:06.216Z,93.72
2022-09-03T21:42:07.793Z,93.56
2022-09-03T21:44:08.864Z,93.61
2022-09-03T21:50:16.419Z,94.52
2022-09-03T21:52:14.362Z,94.6
2022-09-03T21:54:16.045Z,94.46
2022-09-03T21:56:17.160Z,94.49
2022-09-03T21:58:18.887Z,94.33
2022-09-03T22:00:20.648Z,94.37
2022-09-03T22:02:22.138Z,94.47
2022-09-03T22:04:23.276Z,94.6
2022-09-03T22:06:25.946Z,94.56
2022-09-03T22:08:26.668Z,94.95
2022-09-03T22:10:28.147Z,94.81
2022-09-03T22:12:29.138Z,94.73
2022-09-03T22:14:30.729Z,94.74
2022-09-03T22:16:32.224Z,94.62
2022-09-03T22:18:33.430Z,94.65
2022-09-03T22:20:34.942Z,94.72
2022-09-03T22:22:36.022Z,95.25
2022-09-03T22:24:37.925Z,94.98
2022-09-03T22:26:39.466Z,95.03
2022-09-03T22:28:40.641Z,95.33
2022-09-03T22:32:43.889Z,94.93
2022-09-03T22:34:44.919Z,95.1
2022-09-03T22:36:46.428Z,95.14
2022-09-03T22:38:47.871Z,95.26
2022-09-03T22:40:50.721Z,95.18
2022-09-03T22:42:50.982Z,95.01
2022-09-03T22:44:52.304Z,95.13
2022-09-03T22:46:53.311Z,95.23
2022-09-03T22:48:54.872Z,95.24
2022-09-03T22:50:56.493Z,95.36
2022-09-03T22:52:57.426Z,95.68
2022-09-03T22:54:58.535Z,95.77
2022-09-03T22:56:59.470Z,95.78
2022-09-03T22:59:00.604Z,95.72
2022-09-03T23:01:02.098Z,95.64
2022-09-03T23:03:03.709Z,95.53
2022-09-03T23:05:05.030Z,95.44
2022-09-03T23:07:06.788Z,95.56
2022-09-03T23:09:07.917Z,95.54
2022-09-03T23:11:09.005Z,95.29
2022-09-03T23:13:10.325Z,95.33
2022-09-03T23:15:12.030Z,95.32
2022-09-03T23:17:13.174Z,95.97
2022-09-03T23:19:14.112Z,95.97
2022-09-03T23:21:15.923Z,95.83
2022-09-03T23:23:17.821Z,96.15
2022-09-03T23:25:19.290Z,96.06
2022-09-03T23:27:21.036Z,95.92
2022-09-03T23:29:22.386Z,95.97
2022-09-03T23:31:24.081Z,95.93
2022-09-03T23:33:25.883Z,95.8
2022-09-03T23:35:27.285Z,95.85
2022-09-03T23:37:34.027Z,96.12
2022-09-03T23:39:30.052Z,96.39
2022-09-03T23:43:32.944Z,96.3
2022-09-03T23:45:34.581Z,96.36
2022-09-03T23:47:36.246Z,96.88
2022-09-03T23:49:37.924Z,96.8
2022-09-03T23:51:39.505Z,96.86
2022-09-03T23:55:43.031Z,96.67
2022-09-03T23:57:44.159Z,96.52
2022-09-03T23:59:45.494Z,96.5
